Time;durP1;ratioP1;P1;durP2;ratioP2;P2;SDS_P1;SDS_P2;PMS_P1;PMS_P2;Temp;Humidity;BMP_temperature;BMP_pressure;BME280_temperature;BME280_humidity;BME280_pressure;Samples;Min_cycle;Max_cycle;Signal;HPM_P1;HPM_P2
2022/04/02 00:02:12;;;;;;;1.85;0.40;;;18.40;99.90;;;;;;4994328;28;20037;-69
2022/04/02 00:04:39;;;;;;;1.15;0.28;;;18.40;99.90;;;;;;5013222;28;20045;-69
2022/04/02 00:07:06;;;;;;;1.70;0.60;;;18.50;99.90;;;;;;5010612;28;20041;-69
2022/04/02 00:09:34;;;;;;;1.95;0.20;;;18.70;99.90;;;;;;5002842;28;20029;-69
2022/04/02 00:12:02;;;;;;;1.45;0.65;;;18.70;99.90;;;;;;5012349;28;20087;-69
2022/04/02 00:14:30;;;;;;;1.92;0.28;;;18.80;99.90;;;;;;5011860;28;20054;-69
2022/04/02 00:16:57;;;;;;;0.93;0.20;;;18.80;99.90;;;;;;5006296;28;20056;-69
2022/04/02 00:19:24;;;;;;;2.60;0.43;;;18.70;99.90;;;;;;5012239;28;20048;-69
2022/04/02 00:21:51;;;;;;;1.73;0.38;;;18.90;99.90;;;;;;5016865;28;20014;-69
2022/04/02 00:24:19;;;;;;;1.20;0.45;;;19.00;99.90;;;;;;5013513;28;20389;-69
2022/04/02 00:26:46;;;;;;;1.88;0.50;;;19.00;99.90;;;;;;5013668;28;20029;-69
2022/04/02 00:29:13;;;;;;;0.95;0.20;;;18.90;99.90;;;;;;5013206;28;20164;-69
2022/04/02 00:31:41;;;;;;;1.13;0.28;;;18.90;99.90;;;;;;5010209;28;20482;-69
2022/04/02 00:34:08;;;;;;;2.83;0.40;;;18.80;99.90;;;;;;5007908;28;20095;-69
2022/04/02 00:36:38;;;;;;;1.17;0.20;;;18.90;99.90;;;;;;5009146;28;20030;-69
2022/04/02 00:39:07;;;;;;;1.98;0.30;;;19.00;99.90;;;;;;5012626;28;20021;-68
2022/04/02 00:41:35;;;;;;;2.95;0.77;;;19.00;99.90;;;;;;5007943;28;20034;-69
2022/04/02 00:44:10;;;;;;;1.05;0.25;;;19.10;99.90;;;;;;5002583;28;20030;-70
2022/04/02 00:46:39;;;;;;;0.98;0.30;;;19.10;99.90;;;;;;5009489;28;20402;-69
2022/04/02 00:49:07;;;;;;;1.65;0.20;;;19.10;99.90;;;;;;5006249;28;20048;-69
2022/04/02 00:51:41;;;;;;;0.90;0.20;;;19.20;99.90;;;;;;5006881;28;20441;-69
2022/04/02 00:54:10;;;;;;;0.63;0.20;;;19.40;99.90;;;;;;5007529;28;20042;-69
2022/04/02 00:56:41;;;;;;;0.57;0.20;;;19.40;99.90;;;;;;5012733;28;20379;-69
2022/04/02 00:59:08;;;;;;;3.25;1.30;;;19.50;99.90;;;;;;5012003;28;20034;-68
2022/04/02 01:01:37;;;;;;;1.67;0.80;;;19.50;99.90;;;;;;5012255;28;20525;-69
2022/04/02 01:04:06;;;;;;;2.33;0.65;;;19.60;99.90;;;;;;5008052;28;20026;-69
2022/04/02 01:06:35;;;;;;;0.73;0.17;;;19.70;99.90;;;;;;5008571;28;20014;-68
2022/04/02 01:09:03;;;;;;;0.73;0.10;;;19.60;99.90;;;;;;5005856;28;20096;-69
2022/04/02 01:11:45;;;;;;;1.40;0.10;;;19.70;99.90;;;;;;5012009;28;20037;-68
2022/04/02 01:14:12;;;;;;;1.45;0.30;;;19.80;99.90;;;;;;5007158;28;20053;-69
2022/04/02 01:16:40;;;;;;;0.08;0.00;;;19.70;99.90;;;;;;5007911;28;20032;-69
2022/04/02 01:19:07;;;;;;;1.98;0.10;;;19.70;99.90;;;;;;5005917;28;20483;-69
2022/04/02 01:21:36;;;;;;;0.47;0.15;;;19.60;99.90;;;;;;5010942;28;20069;-69
2022/04/02 01:24:05;;;;;;;1.38;0.80;;;19.60;99.90;;;;;;5007692;28;20033;-69
2022/04/02 01:26:32;;;;;;;0.57;0.10;;;19.80;99.90;;;;;;5006911;28;20029;-69
2022/04/02 01:29:00;;;;;;;0.57;0.13;;;19.70;99.90;;;;;;5012724;28;20034;-70
2022/04/02 01:31:28;;;;;;;0.38;0.10;;;19.80;99.90;;;;;;5005532;28;20116;-70
2022/04/02 01:33:56;;;;;;;0.65;0.20;;;19.80;99.90;;;;;;5023909;28;20030;-68
2022/04/02 01:36:23;;;;;;;1.23;0.10;;;19.90;99.90;;;;;;5004692;28;20163;-69
2022/04/02 01:38:51;;;;;;;3.00;0.20;;;20.00;99.90;;;;;;5024345;28;20079;-69
2022/04/02 01:41:19;;;;;;;0.20;0.00;;;19.90;99.90;;;;;;5008110;28;20022;-68
2022/04/02 01:43:49;;;;;;;0.60;0.10;;;19.70;99.90;;;;;;5008059;28;20032;-68
2022/04/02 01:46:17;;;;;;;0.30;0.03;;;19.60;99.90;;;;;;5022426;23;20397;-68
2022/04/02 01:48:45;;;;;;;0.90;0.10;;;19.60;99.90;;;;;;5061621;28;20511;-68
2022/04/02 01:51:13;;;;;;;1.30;0.10;;;19.60;99.90;;;;;;5054373;28;20069;-69
2022/04/02 01:53:40;;;;;;;0.30;0.10;;;19.70;99.90;;;;;;5054662;28;20050;-68
2022/04/02 01:56:11;;;;;;;0.77;0.17;;;19.80;99.90;;;;;;5061231;28;20051;-69
2022/04/02 01:58:38;;;;;;;1.52;0.20;;;19.80;99.90;;;;;;5052114;28;20138;-68
2022/04/02 02:01:06;;;;;;;0.80;0.22;;;19.80;99.90;;;;;;5052148;28;20401;-69
2022/04/02 02:03:34;;;;;;;1.30;0.20;;;19.90;99.90;;;;;;5052038;28;20021;-69
2022/04/02 02:06:01;;;;;;;1.38;0.00;;;19.90;99.90;;;;;;5055631;28;20680;-69
2022/04/02 02:08:29;;;;;;;1.05;0.30;;;19.90;99.90;;;;;;5052639;28;20370;-68
2022/04/02 02:10:57;;;;;;;1.80;0.65;;;19.90;99.90;;;;;;5054493;28;20025;-68
2022/04/02 02:13:24;;;;;;;2.47;0.80;;;19.90;99.90;;;;;;5061850;28;20033;-68
2022/04/02 02:15:52;;;;;;;2.15;0.82;;;19.90;99.90;;;;;;5061775;28;20048;-69
2022/04/02 02:18:19;;;;;;;2.35;0.75;;;19.90;99.90;;;;;;5059497;28;20025;-68
2022/04/02 02:20:47;;;;;;;0.73;0.30;;;19.90;99.90;;;;;;5060632;28;20388;-68
2022/04/02 02:23:14;;;;;;;0.93;0.10;;;20.10;99.90;;;;;;5052425;28;20104;-68
2022/04/02 02:25:41;;;;;;;0.75;0.10;;;20.10;99.90;;;;;;5060891;28;20032;-68
2022/04/02 02:28:09;;;;;;;0.10;0.03;;;20.10;99.90;;;;;;5058371;28;20036;-69
2022/04/02 02:30:36;;;;;;;1.05;0.10;;;20.00;99.90;;;;;;5059191;28;20028;-68
2022/04/02 02:35:51;;;;;;;0.70;0.10;;;20.10;99.90;;;;;;5060491;28;20035;-68
2022/04/02 02:38:20;;;;;;;0.65;0.35;;;20.10;99.90;;;;;;5053534;28;20029;-68
2022/04/02 02:40:51;;;;;;;1.98;0.20;;;20.30;99.90;;;;;;5058000;28;20018;-68
2022/04/02 02:43:20;;;;;;;1.40;0.68;;;20.40;99.90;;;;;;5059051;28;20116;-68
2022/04/02 02:45:48;;;;;;;1.45;0.70;;;20.50;99.90;;;;;;5052014;28;20025;-68
2022/04/02 02:48:15;;;;;;;0.60;0.10;;;20.60;99.90;;;;;;5051617;28;20051;-68
2022/04/02 02:50:42;;;;;;;2.05;1.10;;;20.60;99.90;;;;;;5056241;28;20488;-68
2022/04/02 02:53:10;;;;;;;1.05;0.30;;;20.80;99.90;;;;;;5053726;28;20036;-68
2022/04/02 02:55:38;;;;;;;1.67;0.90;;;20.80;99.90;;;;;;5062195;28;20024;-69
2022/04/02 02:58:05;;;;;;;1.75;0.30;;;20.80;99.90;;;;;;5054938;28;20020;-68
2022/04/02 03:00:33;;;;;;;1.08;0.40;;;20.70;99.90;;;;;;5049809;28;20431;-68
2022/04/02 03:03:00;;;;;;;2.08;0.20;;;20.70;99.90;;;;;;5056577;28;20033;-68
2022/04/02 03:05:27;;;;;;;0.75;0.30;;;20.80;99.90;;;;;;5054410;28;20439;-69
2022/04/02 03:07:55;;;;;;;2.33;0.73;;;20.80;99.90;;;;;;5061414;28;20070;-67
2022/04/02 03:10:25;;;;;;;1.30;0.10;;;20.70;99.90;;;;;;5053830;28;20033;-69
2022/04/02 03:12:54;;;;;;;0.17;0.00;;;20.60;99.90;;;;;;5056341;28;20036;-69
2022/04/02 03:15:22;;;;;;;0.68;0.10;;;20.60;99.90;;;;;;5060157;28;20053;-68
2022/04/02 03:17:51;;;;;;;0.85;0.10;;;20.60;99.90;;;;;;5055142;28;20538;-69
2022/04/02 03:20:20;;;;;;;0.50;0.10;;;20.50;99.90;;;;;;5060877;28;20033;-68
2022/04/02 03:22:49;;;;;;;0.20;0.00;;;20.50;99.90;;;;;;5060868;28;20036;-68
2022/04/02 03:25:20;;;;;;;0.28;0.10;;;20.60;99.90;;;;;;5063569;28;20051;-69
2022/04/02 03:27:47;;;;;;;2.38;0.32;;;20.70;99.90;;;;;;5056657;28;20046;-69
2022/04/02 03:30:19;;;;;;;0.30;0.10;;;20.70;99.90;;;;;;5071437;28;20064;-69
2022/04/02 03:32:46;;;;;;;0.52;0.20;;;20.60;99.90;;;;;;5055742;28;20064;-69
2022/04/02 03:38:37;;;;;;;0.35;0.00;;;20.80;99.90;;;;;;5060942;28;20436;-69
2022/04/02 03:41:05;;;;;;;4.50;1.98;;;21.00;99.90;;;;;;5054601;28;20087;-69
2022/04/02 03:43:33;;;;;;;2.55;0.28;;;21.20;99.90;;;;;;5063792;28;20098;-68
2022/04/02 03:48:41;;;;;;;1.13;0.13;;;21.30;99.90;;;;;;5063676;28;20061;-70
2022/04/02 03:51:08;;;;;;;0.63;0.10;;;21.30;99.90;;;;;;5055827;28;20102;-70
2022/04/02 03:53:36;;;;;;;2.40;0.20;;;20.90;99.90;;;;;;5055870;28;20033;-70
2022/04/02 03:56:04;;;;;;;2.97;0.20;;;21.00;99.90;;;;;;5055229;28;20017;-69
2022/04/02 03:58:31;;;;;;;1.20;0.10;;;21.00;99.90;;;;;;5061642;28;20024;-68
2022/04/02 04:00:59;;;;;;;0.22;0.00;;;20.90;99.90;;;;;;5058037;28;20029;-69
2022/04/02 04:03:26;;;;;;;3.05;0.10;;;20.80;99.90;;;;;;5054863;28;20053;-69
2022/04/02 04:05:53;;;;;;;0.32;0.10;;;20.90;99.90;;;;;;5057937;28;20385;-69
2022/04/02 04:08:21;;;;;;;1.80;0.20;;;21.00;99.90;;;;;;5062944;28;20029;-69
2022/04/02 04:10:49;;;;;;;1.02;0.10;;;21.10;99.90;;;;;;5054628;28;20078;-68
2022/04/02 04:13:16;;;;;;;0.43;0.10;;;20.90;99.90;;;;;;5064612;28;20085;-69
2022/04/02 04:15:43;;;;;;;0.95;0.10;;;20.90;99.90;;;;;;5069104;28;20427;-69
2022/04/02 04:18:11;;;;;;;1.52;0.00;;;21.00;99.90;;;;;;5066403;28;20054;-69
2022/04/02 04:20:38;;;;;;;2.00;0.10;;;21.20;99.90;;;;;;5064497;28;20032;-69
2022/04/02 04:23:07;;;;;;;0.20;0.10;;;21.20;99.90;;;;;;5054838;28;20029;-69
2022/04/02 04:25:34;;;;;;;0.50;0.20;;;21.30;99.90;;;;;;5057202;28;20017;-69
2022/04/02 04:28:02;;;;;;;0.20;0.00;;;21.40;99.90;;;;;;5065604;28;20025;-70
2022/04/02 04:30:30;;;;;;;0.30;0.10;;;21.40;99.90;;;;;;5057799;28;20028;-69
2022/04/02 04:32:57;;;;;;;1.70;0.10;;;21.40;99.90;;;;;;5057885;28;20135;-69
2022/04/02 04:35:29;;;;;;;0.73;0.17;;;21.40;99.90;;;;;;5054769;28;20029;-69
2022/04/02 04:37:56;;;;;;;0.65;0.10;;;21.50;99.90;;;;;;5055166;28;20017;-69
2022/04/02 04:40:24;;;;;;;0.63;0.00;;;21.50;99.90;;;;;;5065584;28;20021;-69
2022/04/02 04:42:58;;;;;;;0.10;0.00;;;21.40;99.90;;;;;;5074776;28;20020;-69
2022/04/02 04:45:25;;;;;;;1.42;0.08;;;21.20;99.90;;;;;;5072013;28;20159;-69
2022/04/02 04:47:53;;;;;;;0.20;0.00;;;21.30;99.90;;;;;;5066471;28;20080;-69
2022/04/02 04:50:20;;;;;;;0.32;0.10;;;21.10;99.90;;;;;;5056092;28;20040;-69
2022/04/02 04:52:47;;;;;;;0.22;0.00;;;21.10;99.90;;;;;;5064337;28;20029;-68
2022/04/02 04:55:15;;;;;;;0.38;0.10;;;21.00;99.90;;;;;;5054222;28;20029;-69
2022/04/02 04:57:42;;;;;;;0.80;0.00;;;21.00;99.90;;;;;;5057570;28;20024;-69
2022/04/02 05:00:10;;;;;;;1.17;0.10;;;21.00;99.90;;;;;;5052720;28;20071;-69
2022/04/02 05:02:39;;;;;;;1.67;0.08;;;21.30;99.90;;;;;;5058250;28;20089;-69
2022/04/02 05:05:07;;;;;;;0.13;0.05;;;21.40;99.90;;;;;;5057101;28;20064;-69
2022/04/02 05:07:34;;;;;;;0.50;0.00;;;21.40;99.90;;;;;;5061705;28;20154;-69
2022/04/02 05:10:03;;;;;;;0.43;0.00;;;21.20;99.90;;;;;;5062041;28;20035;-69
2022/04/02 05:12:32;;;;;;;0.00;0.00;;;21.10;99.90;;;;;;5072841;28;20036;-69
2022/04/02 05:14:59;;;;;;;1.70;0.00;;;21.00;99.90;;;;;;5073777;28;20021;-69
2022/04/02 05:17:26;;;;;;;0.50;0.10;;;21.10;99.90;;;;;;5068222;28;20503;-69
2022/04/02 05:19:54;;;;;;;0.40;0.10;;;21.10;99.90;;;;;;5073055;28;20027;-69
2022/04/02 05:22:22;;;;;;;0.10;0.00;;;21.30;99.90;;;;;;5044525;28;20401;-69
2022/04/02 05:24:50;;;;;;;0.75;0.10;;;21.50;99.90;;;;;;5061478;28;20033;-70
2022/04/02 05:27:17;;;;;;;0.03;0.03;;;21.60;99.90;;;;;;5061104;28;20581;-69
2022/04/02 05:29:44;;;;;;;1.25;0.10;;;21.60;99.90;;;;;;5068344;28;20128;-69
2022/04/02 05:32:12;;;;;;;0.43;0.13;;;21.60;99.90;;;;;;5053551;28;20033;-69
2022/04/02 05:34:39;;;;;;;0.28;0.10;;;21.80;99.90;;;;;;5071676;28;20025;-68
2022/04/02 05:37:07;;;;;;;0.10;0.00;;;21.60;99.90;;;;;;5072715;28;20396;-69
2022/04/02 05:39:36;;;;;;;1.45;0.08;;;21.70;99.90;;;;;;5069484;28;20108;-69
2022/04/02 05:42:07;;;;;;;0.65;0.08;;;21.60;99.90;;;;;;5052832;28;20763;-70
2022/04/02 05:44:35;;;;;;;1.35;0.20;;;21.60;99.90;;;;;;5062665;28;20128;-68
2022/04/02 05:47:02;;;;;;;1.25;0.50;;;21.60;99.90;;;;;;5051617;28;20049;-70
2022/04/02 05:49:29;;;;;;;0.20;0.10;;;21.60;99.90;;;;;;5051727;28;20370;-70
2022/04/02 05:51:57;;;;;;;0.50;0.20;;;21.40;99.90;;;;;;5052860;28;20031;-69
2022/04/02 05:54:24;;;;;;;0.73;0.20;;;21.40;99.90;;;;;;5051637;28;20097;-69
2022/04/02 05:56:52;;;;;;;1.95;0.40;;;21.30;99.90;;;;;;5057989;28;20153;-69
2022/04/02 05:59:21;;;;;;;0.80;0.10;;;21.30;99.90;;;;;;5061791;28;20052;-69
2022/04/02 06:01:49;;;;;;;1.02;0.10;;;21.30;99.90;;;;;;5061755;28;20141;-68
2022/04/02 06:04:16;;;;;;;0.30;0.10;;;21.20;99.90;;;;;;5054323;28;20056;-69
2022/04/02 06:06:44;;;;;;;1.17;0.10;;;21.30;99.90;;;;;;5055938;28;20033;-69
2022/04/02 06:09:12;;;;;;;1.73;0.20;;;21.30;99.90;;;;;;5054019;28;20098;-68
2022/04/02 06:11:39;;;;;;;0.32;0.10;;;21.20;99.90;;;;;;5057329;28;20129;-69
2022/04/02 06:14:07;;;;;;;0.82;0.10;;;21.10;99.90;;;;;;5050545;28;20029;-68
2022/04/02 06:16:34;;;;;;;1.90;0.10;;;20.90;99.90;;;;;;5053979;28;20032;-68
2022/04/02 06:19:02;;;;;;;4.75;0.60;;;21.00;99.90;;;;;;5058305;28;20402;-69
2022/04/02 06:21:30;;;;;;;2.85;0.63;;;21.00;99.90;;;;;;5065193;28;20025;-69
2022/04/02 06:23:58;;;;;;;4.03;0.35;;;21.00;99.90;;;;;;5069724;28;20036;-69
2022/04/02 06:26:25;;;;;;;2.40;0.30;;;21.10;99.90;;;;;;5066757;28;20071;-70
2022/04/02 06:28:56;;;;;;;2.60;0.20;;;21.10;99.90;;;;;;5055866;28;20502;-67
2022/04/02 06:31:23;;;;;;;8.73;0.63;;;21.00;99.90;;;;;;5054832;28;20040;-69
2022/04/02 06:33:51;;;;;;;2.35;0.60;;;21.10;99.90;;;;;;5068410;28;20021;-69
2022/04/02 06:36:19;;;;;;;1.95;0.30;;;21.10;99.90;;;;;;5061445;28;20036;-70
2022/04/02 06:38:47;;;;;;;1.17;0.55;;;21.10;99.90;;;;;;5054508;28;20394;-70
2022/04/02 06:41:14;;;;;;;1.42;0.40;;;21.10;99.90;;;;;;5058950;28;20029;-69
2022/04/02 06:43:42;;;;;;;1.60;0.30;;;21.00;99.90;;;;;;5066551;28;20020;-69
2022/04/02 06:46:09;;;;;;;4.50;2.35;;;20.90;99.90;;;;;;5067232;28;20031;-69
2022/04/02 06:48:37;;;;;;;0.75;0.20;;;20.90;99.90;;;;;;5076266;28;20017;-69
2022/04/02 06:51:09;;;;;;;0.82;0.30;;;20.80;99.90;;;;;;5068533;28;22314;-70
2022/04/02 06:53:36;;;;;;;1.60;0.40;;;20.70;99.90;;;;;;5061451;28;20029;-69
2022/04/02 06:56:04;;;;;;;1.55;0.45;;;20.60;99.90;;;;;;5054682;28;20033;-69
2022/04/02 06:58:36;;;;;;;1.13;0.28;;;20.60;99.90;;;;;;5066972;28;20052;-69
2022/04/02 07:01:05;;;;;;;2.75;0.20;;;20.50;99.90;;;;;;5058630;28;20113;-69
2022/04/02 07:03:32;;;;;;;0.98;0.30;;;20.40;99.90;;;;;;5072963;28;20477;-69
2022/04/02 07:06:00;;;;;;;1.55;0.22;;;20.30;99.90;;;;;;5059945;28;20021;-68
2022/04/02 07:08:28;;;;;;;5.32;4.45;;;20.40;99.90;;;;;;5061849;28;20384;-68
2022/04/02 07:10:56;;;;;;;1.92;0.30;;;20.30;99.90;;;;;;5055875;28;20029;-69
2022/04/02 07:13:26;;;;;;;1.25;1.00;;;20.20;99.90;;;;;;5071313;28;20024;-69
2022/04/02 07:15:54;;;;;;;1.00;0.40;;;20.20;99.90;;;;;;5061184;28;20025;-69
2022/04/02 07:18:25;;;;;;;1.40;0.43;;;20.20;99.90;;;;;;5068049;28;20110;-69
2022/04/02 07:20:53;;;;;;;1.20;0.40;;;20.20;99.90;;;;;;5057252;28;20033;-70
2022/04/02 07:23:22;;;;;;;1.73;0.90;;;20.20;99.90;;;;;;5055482;28;20131;-69
2022/04/02 07:25:49;;;;;;;8.25;5.63;;;20.10;99.90;;;;;;5063601;28;20017;-70
2022/04/02 07:28:19;;;;;;;1.65;0.40;;;20.10;99.90;;;;;;5063052;28;20083;-70
2022/04/02 07:30:48;;;;;;;3.40;1.20;;;20.10;99.90;;;;;;5059590;28;20368;-70
2022/04/02 07:33:16;;;;;;;2.38;0.82;;;20.10;99.90;;;;;;5062318;28;20029;-70
2022/04/02 07:36:08;;;;;;;3.13;0.65;;;20.00;99.90;;;;;;5062255;28;20091;-70
2022/04/02 07:38:51;;;;;;;2.00;0.75;;;20.00;99.90;;;;;;5050618;28;20571;-70
2022/04/02 07:41:48;;;;;;;1.25;0.80;;;20.00;99.90;;;;;;5059069;28;20037;-69
2022/04/02 07:44:42;;;;;;;1.92;0.55;;;19.90;99.90;;;;;;5064292;28;20388;-70
2022/04/02 07:47:15;;;;;;;1.08;0.50;;;19.90;99.90;;;;;;5055835;28;20518;-70
2022/04/02 07:49:46;;;;;;;2.15;0.20;;;19.80;99.90;;;;;;5044418;23;20037;-70
2022/04/02 07:52:14;;;;;;;1.88;0.60;;;19.70;99.90;;;;;;5027021;28;20037;-66
2022/04/02 07:54:44;;;;;;;0.22;0.20;;;19.70;99.90;;;;;;5020413;28;20164;-67
2022/04/02 07:57:12;;;;;;;0.40;0.20;;;19.70;99.90;;;;;;5028011;28;20109;-67
2022/04/02 07:59:42;;;;;;;0.28;0.10;;;19.70;99.90;;;;;;5017484;28;20038;-67
2022/04/02 08:04:59;;;;;;;1.70;1.02;;;19.60;99.90;;;;;;5034662;28;20029;-68
2022/04/02 08:07:32;;;;;;;1.42;0.50;;;19.50;99.90;;;;;;5027312;28;20034;-68
2022/04/02 08:10:02;;;;;;;8.13;6.05;;;19.50;99.90;;;;;;5024558;28;20471;-68
2022/04/02 08:12:32;;;;;;;4.55;1.65;;;19.50;99.90;;;;;;5033871;28;20163;-68
2022/04/02 08:14:59;;;;;;;5.72;4.75;;;19.50;99.90;;;;;;5023486;28;20021;-69
2022/04/02 08:17:30;;;;;;;1.98;1.25;;;19.50;99.90;;;;;;5029430;28;20057;-69
2022/04/02 08:20:00;;;;;;;1.25;0.50;;;19.40;99.90;;;;;;5033597;28;20033;-68
2022/04/02 08:22:27;;;;;;;1.95;0.73;;;19.40;99.90;;;;;;5028719;28;20045;-69
2022/04/02 08:24:58;;;;;;;1.42;0.80;;;19.40;99.90;;;;;;5014836;28;20076;-69
2022/04/02 08:27:46;;;;;;;1.70;0.85;;;19.30;99.90;;;;;;5025841;28;20033;-69
2022/04/02 08:30:24;;;;;;;4.07;1.00;;;19.30;99.90;;;;;;5032531;28;20042;-69
2022/04/02 08:33:12;;;;;;;1.33;0.70;;;19.30;99.90;;;;;;5034331;28;20035;-69
2022/04/02 08:35:55;;;;;;;1.55;0.70;;;19.30;99.90;;;;;;5017663;28;20033;-70
2022/04/02 08:38:28;;;;;;;1.42;0.38;;;19.20;99.90;;;;;;5032912;28;20018;-70
2022/04/02 08:41:22;;;;;;;1.48;0.50;;;19.10;99.90;;;;;;5030959;28;20477;-70
2022/04/02 08:44:13;;;;;;;1.85;0.80;;;19.10;99.90;;;;;;5033530;28;20432;-72
2022/04/02 08:46:50;;;;;;;4.93;0.63;;;19.00;99.90;;;;;;5023097;28;20577;-71
2022/04/02 08:49:34;;;;;;;1.13;0.55;;;19.00;99.90;;;;;;5024008;28;20497;-72
2022/04/02 08:52:14;;;;;;;2.13;0.82;;;18.90;99.90;;;;;;5023286;28;20421;-71
2022/04/02 08:54:56;;;;;;;2.75;1.25;;;18.90;99.90;;;;;;5019733;28;20034;-71
2022/04/02 08:57:35;;;;;;;0.90;0.30;;;18.90;99.90;;;;;;5022748;28;20034;-71
2022/04/02 09:00:10;;;;;;;0.82;0.38;;;18.80;99.90;;;;;;5022125;28;20048;-70
2022/04/02 09:02:55;;;;;;;2.03;0.50;;;18.80;99.90;;;;;;5034237;28;20045;-71
2022/04/02 09:05:32;;;;;;;2.83;1.20;;;18.80;99.90;;;;;;5029996;28;20705;-70
2022/04/02 09:08:35;;;;;;;4.15;2.53;;;18.70;99.90;;;;;;5028015;28;20021;-71
2022/04/02 09:11:16;;;;;;;3.40;1.90;;;18.70;99.90;;;;;;5022518;28;20421;-71
2022/04/02 09:14:08;;;;;;;1.58;0.47;;;18.70;99.90;;;;;;5028646;28;20099;-72
2022/04/02 09:17:03;;;;;;;2.47;0.38;;;18.60;99.90;;;;;;5029360;28;20053;-69
2022/04/02 09:19:37;;;;;;;0.70;0.32;;;18.60;99.90;;;;;;5025622;28;20496;-70
2022/04/02 09:22:09;;;;;;;1.10;0.38;;;18.60;99.90;;;;;;5031798;28;20037;-71
2022/04/02 09:25:05;;;;;;;0.98;0.30;;;18.60;99.90;;;;;;5032116;28;20022;-70
2022/04/02 09:27:38;;;;;;;1.73;0.40;;;18.60;99.90;;;;;;5032906;28;20026;-72
2022/04/02 09:30:15;;;;;;;1.83;0.47;;;18.60;99.90;;;;;;5022978;28;20032;-70
2022/04/02 09:32:58;;;;;;;1.52;0.40;;;18.60;99.90;;;;;;5019349;28;20377;-71
2022/04/02 09:36:00;;;;;;;6.50;4.10;;;18.50;99.90;;;;;;5025289;28;20025;-71
2022/04/02 09:38:43;;;;;;;8.73;2.90;;;18.50;99.90;;;;;;5003896;28;20470;-71
2022/04/02 09:41:28;;;;;;;1.65;0.52;;;18.40;99.90;;;;;;5022209;28;20033;-71
2022/04/02 09:43:57;;;;;;;;;;;18.40;99.90;;;;;;5024747;28;20025;-71
2022/04/02 09:46:45;;;;;;;3.08;0.75;;;18.30;99.90;;;;;;5024376;28;20262;-70
2022/04/02 09:49:24;;;;;;;2.45;0.88;;;18.30;99.90;;;;;;5016230;28;20055;-70
2022/04/02 09:52:06;;;;;;;2.47;0.60;;;18.30;99.90;;;;;;5028473;28;20405;-71
2022/04/02 09:54:59;;;;;;;2.13;0.77;;;18.30;99.90;;;;;;5021074;28;20091;-71
2022/04/02 09:57:35;;;;;;;3.10;1.02;;;18.20;99.90;;;;;;5024301;28;20120;-71
2022/04/02 10:00:19;;;;;;;1.92;0.60;;;18.20;99.90;;;;;;5022651;28;20025;-70
2022/04/02 10:03:06;;;;;;;2.38;0.65;;;18.10;99.90;;;;;;5025572;28;20038;-71
2022/04/02 10:05:50;;;;;;;1.52;0.60;;;18.10;99.90;;;;;;5028630;28;20024;-71
2022/04/02 10:08:58;;;;;;;1.13;0.30;;;18.10;99.90;;;;;;5028027;28;20030;-71
2022/04/02 10:11:29;;;;;;;1.85;0.38;;;18.00;99.90;;;;;;5014233;28;20030;-71
2022/04/02 10:14:02;;;;;;;0.82;0.40;;;18.00;99.90;;;;;;5025214;28;20053;-71
2022/04/02 10:16:31;;;;;;;0.73;0.22;;;18.00;99.90;;;;;;5022411;28;20041;-71
2022/04/02 10:19:00;;;;;;;1.30;0.40;;;18.00;99.90;;;;;;5028650;28;20022;-71
2022/04/02 10:21:34;;;;;;;3.38;0.70;;;17.90;99.90;;;;;;5030600;28;20055;-71
2022/04/02 10:24:12;;;;;;;0.73;0.50;;;18.00;99.90;;;;;;5021421;28;20025;-70
2022/04/02 10:26:41;;;;;;;1.27;0.43;;;17.90;99.90;;;;;;5021156;28;20137;-70
2022/04/02 10:29:13;;;;;;;1.00;0.40;;;17.90;99.90;;;;;;5028233;28;20033;-71
2022/04/02 10:32:11;;;;;;;0.77;0.32;;;17.90;99.90;;;;;;5028413;28;20025;-71
2022/04/02 10:34:53;;;;;;;0.80;0.50;;;17.90;99.90;;;;;;5022529;28;20100;-71
2022/04/02 10:37:21;;;;;;;0.73;0.30;;;17.90;99.90;;;;;;5031011;28;20026;-70
2022/04/02 10:39:57;;;;;;;1.67;0.30;;;17.80;99.90;;;;;;5017214;28;20025;-70
2022/04/02 10:42:35;;;;;;;1.10;0.30;;;17.80;99.90;;;;;;5029098;28;20028;-70
2022/04/02 10:45:08;;;;;;;0.88;0.17;;;17.90;99.90;;;;;;5023164;28;20026;-70
2022/04/02 10:47:47;;;;;;;1.08;0.20;;;17.80;99.90;;;;;;5030784;28;20030;-70
2022/04/02 10:50:19;;;;;;;1.38;0.60;;;17.80;99.90;;;;;;5030362;28;20045;-70
2022/04/02 10:52:50;;;;;;;0.75;0.28;;;17.80;99.90;;;;;;5030559;28;20022;-70
2022/04/02 10:55:21;;;;;;;1.08;0.25;;;17.70;99.90;;;;;;5029215;28;20042;-70
2022/04/02 10:57:48;;;;;;;1.15;0.50;;;17.70;99.90;;;;;;5030034;28;20386;-70
2022/04/02 11:00:17;;;;;;;4.07;1.35;;;17.70;99.90;;;;;;5029207;28;20421;-71
2022/04/02 11:02:46;;;;;;;3.45;1.58;;;17.70;99.90;;;;;;5027866;28;20037;-71
2022/04/02 11:05:16;;;;;;;2.35;0.90;;;17.60;99.90;;;;;;5026885;28;20087;-71
2022/04/02 11:07:48;;;;;;;1.92;0.50;;;17.60;99.90;;;;;;5028062;28;20014;-70
2022/04/02 11:10:25;;;;;;;2.05;0.38;;;17.60;99.90;;;;;;5023010;28;20379;-71
2022/04/02 11:13:01;;;;;;;1.00;0.32;;;17.50;99.90;;;;;;5028671;28;20379;-71
2022/04/02 11:15:28;;;;;;;1.10;0.30;;;17.50;99.90;;;;;;5023156;28;20026;-71
2022/04/02 11:18:01;;;;;;;1.77;0.40;;;17.50;99.90;;;;;;5028754;28;20029;-70
2022/04/02 11:20:30;;;;;;;1.13;0.32;;;17.50;99.90;;;;;;5029249;28;20018;-68
2022/04/02 11:23:04;;;;;;;1.10;0.40;;;17.50;99.90;;;;;;5024329;28;20029;-71
2022/04/02 11:25:39;;;;;;;2.78;0.38;;;17.50;99.90;;;;;;5017061;28;20037;-70
2022/04/02 11:28:12;;;;;;;0.65;0.30;;;17.50;99.90;;;;;;5021149;28;20028;-71
2022/04/02 11:30:42;;;;;;;1.52;0.30;;;17.50;99.90;;;;;;5030149;28;20385;-70
2022/04/02 11:33:26;;;;;;;1.33;0.40;;;17.40;99.90;;;;;;5026349;28;20034;-70
2022/04/02 11:36:07;;;;;;;0.80;0.28;;;17.40;99.90;;;;;;5025707;28;20026;-70
2022/04/02 11:38:59;;;;;;;1.02;0.35;;;17.40;99.90;;;;;;5027989;28;20030;-71
2022/04/02 11:41:28;;;;;;;0.88;0.22;;;17.40;99.90;;;;;;5015535;28;20033;-70
2022/04/02 11:44:11;;;;;;;0.85;0.15;;;17.40;99.90;;;;;;5027046;28;20462;-69
2022/04/02 11:47:00;;;;;;;1.95;0.40;;;17.30;99.90;;;;;;5028251;28;20018;-71
2022/04/02 11:49:39;;;;;;;1.38;0.35;;;17.40;99.90;;;;;;5029022;28;20037;-71
2022/04/02 11:52:12;;;;;;;1.92;0.20;;;17.30;99.90;;;;;;5033243;28;20052;-71
2022/04/02 11:54:57;;;;;;;0.93;0.30;;;17.30;99.90;;;;;;5020065;28;20386;-70
2022/04/02 11:57:25;;;;;;;2.13;0.35;;;17.30;99.90;;;;;;5018582;28;20029;-72
2022/04/02 12:00:04;;;;;;;1.92;0.40;;;17.20;99.90;;;;;;5033789;28;20021;-72
2022/04/02 12:02:43;;;;;;;0.57;0.20;;;17.10;99.90;;;;;;5023887;28;20033;-72
2022/04/02 12:05:14;;;;;;;0.80;0.25;;;17.10;99.90;;;;;;5020180;28;20168;-72
2022/04/02 12:07:46;;;;;;;0.77;0.30;;;17.00;99.90;;;;;;5030193;28;20037;-71
2022/04/02 12:10:15;;;;;;;0.73;0.20;;;17.00;99.90;;;;;;5032941;28;20163;-73
2022/04/02 12:12:47;;;;;;;2.03;0.25;;;17.00;99.90;;;;;;5045085;28;20036;-72
2022/04/02 12:15:16;;;;;;;2.30;0.30;;;17.00;99.90;;;;;;5020763;28;20040;-72
2022/04/02 12:18:00;;;;;;;0.63;0.50;;;17.00;99.90;;;;;;5028367;28;20034;-73
2022/04/02 12:20:32;;;;;;;0.75;0.30;;;16.90;99.90;;;;;;5032182;28;20026;-73
2022/04/02 12:23:17;;;;;;;1.70;0.35;;;16.90;99.90;;;;;;5025681;28;20466;-73
2022/04/02 12:26:02;;;;;;;0.85;0.38;;;16.90;99.90;;;;;;5023764;28;20145;-73
2022/04/02 12:28:30;;;;;;;1.40;0.50;;;16.80;99.90;;;;;;5014783;28;20502;-73
2022/04/02 12:31:06;;;;;;;1.17;0.60;;;16.80;99.90;;;;;;5023520;28;20033;-72
2022/04/02 12:33:35;;;;;;;2.22;0.47;;;16.80;99.90;;;;;;5026788;28;20044;-73
2022/04/02 12:36:10;;;;;;;1.88;0.30;;;16.70;99.90;;;;;;5037204;28;20385;-71
2022/04/02 12:38:40;;;;;;;1.27;0.40;;;16.70;99.90;;;;;;5032200;28;20052;-72
2022/04/02 12:41:20;;;;;;;1.42;0.50;;;16.70;99.90;;;;;;5029422;28;20056;-71
2022/04/02 12:43:49;;;;;;;1.13;0.32;;;16.70;99.90;;;;;;5016988;28;20014;-71
2022/04/02 12:46:26;;;;;;;1.73;0.50;;;16.70;99.90;;;;;;5032858;28;20055;-71
2022/04/02 12:48:54;;;;;;;1.40;0.47;;;16.70;99.90;;;;;;5033675;28;20128;-72
2022/04/02 12:51:25;;;;;;;2.38;0.30;;;16.70;99.90;;;;;;5030268;28;20482;-72
2022/04/02 12:53:59;;;;;;;2.05;0.50;;;16.70;99.90;;;;;;5017186;28;20418;-72
2022/04/02 12:56:27;;;;;;;1.58;0.40;;;16.70;99.90;;;;;;5031524;28;20026;-73
2022/04/02 12:58:56;;;;;;;1.95;0.57;;;16.70;99.90;;;;;;5031628;28;20026;-72
2022/04/02 13:01:27;;;;;;;1.73;0.45;;;16.70;99.90;;;;;;5025848;28;20109;-72
2022/04/02 13:04:08;;;;;;;1.42;0.30;;;16.60;99.90;;;;;;5021644;28;20026;-72
2022/04/02 13:06:44;;;;;;;2.50;0.40;;;16.60;99.90;;;;;;5030996;28;20091;-72
2022/04/02 13:09:23;;;;;;;0.98;0.50;;;16.60;99.90;;;;;;5031581;28;20469;-72
2022/04/02 13:11:57;;;;;;;1.40;0.43;;;16.60;99.90;;;;;;5030534;28;20022;-72
2022/04/02 13:14:45;;;;;;;1.33;0.50;;;16.50;99.90;;;;;;5028054;28;20405;-72
2022/04/02 13:17:18;;;;;;;1.65;0.50;;;16.50;99.90;;;;;;5027556;28;20116;-72
2022/04/02 13:22:47;;;;;;;1.13;0.47;;;16.50;99.90;;;;;;5022607;28;20039;-72
2022/04/02 13:25:21;;;;;;;0.70;0.30;;;16.40;99.90;;;;;;5029493;28;20099;-71
2022/04/02 13:27:51;;;;;;;0.75;0.30;;;16.40;99.90;;;;;;5019051;28;20026;-72